Weather at Pratica Di Mare Air Base

Public forecast

Using degrees Celsius for public forecast. Weather courtesy of forecast.io.

Current aviation weather report (METAR) for Pratica Di Mare Air Base

2023/09/27 14:55 (retrieved 42 minutes ago)

LIRE 271455Z 28012KT CAVOK 27/22 Q1014

Closest aviation forecast (TAF) to Pratica Di Mare Air Base

Closest forecast is Ciampino–G. B. Pastine International Airport, 11.0 nm (20.3 km) NE.

2023/09/27 12:00 (retrieved 4 hours ago)

TAF LIRA 271100Z 2712/2812 35006KT CAVOK BECMG 2712/2714 28010KT BECMG 2717/2719 VRB04KT